Time;durP1;ratioP1;P1;durP2;ratioP2;P2;SDS_P1;SDS_P2;PMS_P1;PMS_P2;Temp;Humidity;BMP_temperature;BMP_pressure;BME280_temperature;BME280_humidity;BME280_pressure;Samples;Min_cycle;Max_cycle;Signal;HPM_P1;HPM_P2
2021/07/21 00:00:45;;;;;;;11.35;5.53;;;;;;;14.73;84.89;95577.19;1795963;80;21077;-61
2021/07/21 00:03:14;;;;;;;8.18;4.72;;;;;;;14.67;85.08;95569.84;1795380;80;21030;-60
2021/07/21 00:05:42;;;;;;;9.90;5.08;;;;;;;14.66;85.36;95571.21;1795359;80;21061;-60
2021/07/21 00:08:10;;;;;;;12.47;5.35;;;;;;;14.66;85.12;95576.52;1795358;80;21069;-60
2021/07/21 00:10:38;;;;;;;14.18;5.33;;;;;;;14.63;85.31;95577.97;1795488;80;21015;-60
2021/07/21 00:15:59;;;;;;;10.93;5.97;;;;;;;14.63;85.41;95578.83;1795693;80;20982;-60
2021/07/21 00:20:58;;;;;;;10.38;5.30;;;;;;;14.72;86.29;95581.64;1795630;80;21046;-60
2021/07/21 00:23:24;;;;;;;9.38;5.47;;;;;;;14.71;85.56;95582.08;1795476;80;20979;-60
2021/07/21 00:25:51;;;;;;;8.35;5.12;;;;;;;14.71;85.36;95586.06;1795468;80;21445;-60
2021/07/21 00:28:19;;;;;;;9.08;5.30;;;;;;;14.72;85.68;95585.63;1795196;80;21022;-60
2021/07/21 00:30:46;;;;;;;8.53;5.80;;;;;;;14.76;85.45;95587.70;1795535;80;21421;-60
2021/07/21 00:33:14;;;;;;;10.38;5.87;;;;;;;14.89;86.15;95592.98;1790167;80;21519;-60
2021/07/21 00:35:43;;;;;;;14.60;6.90;;;;;;;15.02;86.38;95594.73;1787188;80;21046;-60
2021/07/21 00:38:11;;;;;;;9.10;6.25;;;;;;;15.14;86.15;95596.52;1786827;80;21564;-60
2021/07/21 00:40:38;;;;;;;8.83;6.20;;;;;;;15.26;85.81;95595.17;1786967;80;20963;-60
2021/07/21 00:43:06;;;;;;;11.75;6.85;;;;;;;15.37;85.63;95590.78;1786805;80;21024;-60
2021/07/21 00:45:32;;;;;;;11.85;6.53;;;;;;;15.42;85.35;95590.17;1787212;80;20975;-60
2021/07/21 00:47:59;;;;;;;12.10;5.80;;;;;;;15.41;84.88;95594.20;1786982;80;21038;-60
2021/07/21 00:50:26;;;;;;;11.45;6.47;;;;;;;15.42;84.92;95583.53;1786846;80;21010;-60
2021/07/21 00:52:54;;;;;;;15.50;7.28;;;;;;;15.37;84.53;95585.46;1786967;80;21122;-60
2021/07/21 00:55:22;;;;;;;11.63;6.35;;;;;;;15.30;84.54;95584.84;1755085;80;21003;-60
2021/07/21 00:57:51;;;;;;;10.40;6.00;;;;;;;15.24;84.47;95582.86;1787030;80;21039;-60
2021/07/21 01:00:19;;;;;;;8.58;5.60;;;;;;;15.21;85.09;95589.63;1787419;80;21027;-60
2021/07/21 01:02:52;;;;;;;10.70;5.50;;;;;;;15.25;84.82;95588.61;1786521;80;21059;-60
2021/07/21 01:05:30;;;;;;;10.40;5.80;;;;;;;15.13;84.73;95586.78;1754343;80;20978;-61
2021/07/21 01:07:58;;;;;;;10.53;5.35;;;;;;;15.06;85.07;95593.24;1786633;80;21047;-60
2021/07/21 01:10:27;;;;;;;11.08;6.50;;;;;;;15.04;85.50;95593.75;1787216;80;20979;-60
2021/07/21 01:13:09;;;;;;;11.50;6.22;;;;;;;15.07;85.41;95595.00;1787231;80;21449;-60
2021/07/21 01:15:57;;;;;;;10.25;6.08;;;;;;;15.11;85.36;95593.08;1754747;80;20995;-60
2021/07/21 01:18:35;;;;;;;9.13;6.03;;;;;;;15.12;85.19;95589.05;1786710;80;21046;-60
2021/07/21 01:21:43;;;;;;;12.10;6.08;;;;;;;15.18;85.12;95579.12;1787326;80;21054;-60
2021/07/21 01:24:49;;;;;;;12.50;6.37;;;;;;;15.20;84.88;95587.44;1781397;80;21077;-60
2021/07/21 01:27:30;;;;;;;12.68;5.72;;;;;;;15.27;84.92;95581.41;1787170;80;21011;-60
2021/07/21 01:30:05;;;;;;;10.85;6.12;;;;;;;15.30;84.45;95578.67;1786909;80;21010;-60
2021/07/21 01:32:35;;;;;;;12.13;6.05;;;;;;;15.20;84.17;95581.27;1750019;81;21512;-60
2021/07/21 01:35:09;;;;;;;13.25;6.45;;;;;;;15.11;84.46;95575.80;1755801;82;21065;-60
2021/07/21 01:37:40;;;;;;;9.75;6.00;;;;;;;15.11;84.67;95581.98;1755874;81;21030;-60
2021/07/21 01:40:13;;;;;;;7.70;5.70;;;;;;;15.06;84.77;95582.61;1755882;82;21074;-60
2021/07/21 01:42:40;;;;;;;9.05;5.75;;;;;;;15.01;84.57;95583.24;1756188;82;21571;-60
2021/07/21 01:45:08;;;;;;;10.85;5.75;;;;;;;15.00;84.92;95580.19;1726057;82;21070;-60
2021/07/21 01:47:38;;;;;;;10.00;5.60;;;;;;;14.94;84.92;95576.41;1755551;82;21013;-60
2021/07/21 01:50:07;;;;;;;10.15;5.70;;;;;;;14.93;84.69;95575.55;1755795;82;21469;-60
2021/07/21 01:52:34;;;;;;;10.03;5.25;;;;;;;14.83;84.84;95572.81;1755903;81;21050;-60
2021/07/21 01:55:08;;;;;;;7.22;4.92;;;;;;;14.76;84.71;95579.27;1726489;82;21035;-60
2021/07/21 01:57:37;;;;;;;11.48;4.65;;;;;;;14.69;84.60;95572.42;1754954;82;21074;-60
2021/07/21 02:00:14;;;;;;;10.58;5.53;;;;;;;14.66;84.67;95577.38;1754082;82;21050;-60
2021/07/21 02:02:50;;;;;;;8.63;4.70;;;;;;;14.59;85.06;95584.29;1755813;81;21026;-61
2021/07/21 02:05:21;;;;;;;11.03;5.08;;;;;;;14.47;84.77;95583.77;1755118;82;21026;-60
2021/07/21 02:07:51;;;;;;;8.55;5.00;;;;;;;14.38;85.12;95586.73;1755802;81;21062;-61
2021/07/21 02:10:24;;;;;;;11.90;4.85;;;;;;;14.26;85.05;95583.15;1755795;82;21026;-60
2021/07/21 02:13:00;;;;;;;7.53;4.22;;;;;;;14.28;85.47;95587.95;1753682;82;21031;-60
2021/07/21 02:15:27;;;;;;;11.70;4.45;;;;;;;14.21;85.53;95599.69;1726091;82;21031;-60
2021/07/21 02:17:55;;;;;;;10.18;5.03;;;;;;;14.12;86.09;95597.34;1755579;81;21556;-60
2021/07/21 02:20:26;;;;;;;9.18;5.00;;;;;;;14.09;85.59;95594.80;1726463;82;21524;-60
2021/07/21 02:22:55;;;;;;;8.03;4.25;;;;;;;14.07;86.31;95597.03;1755596;82;21003;-60
2021/07/21 02:25:26;;;;;;;8.65;4.40;;;;;;;14.03;85.86;95587.88;1754736;82;21035;-60
2021/07/21 02:27:55;;;;;;;7.58;4.97;;;;;;;14.06;85.53;95599.72;1755765;81;21026;-60
2021/07/21 02:30:24;;;;;;;9.20;4.67;;;;;;;14.04;86.18;95590.50;1726519;82;21524;-60
2021/07/21 02:33:17;;;;;;;8.75;4.10;;;;;;;14.04;86.76;95598.46;1726671;81;21007;-60
2021/07/21 02:35:44;;;;;;;5.65;4.12;;;;;;;14.09;86.79;95599.64;1761558;81;21027;-60
2021/07/21 02:38:13;;;;;;;7.00;3.90;;;;;;;14.12;86.50;95591.58;1762537;81;21548;-60
2021/07/21 02:40:42;;;;;;;7.58;3.40;;;;;;;14.21;86.52;95597.92;1761444;81;21103;-60
2021/07/21 02:43:19;;;;;;;7.20;3.50;;;;;;;14.27;86.38;95591.07;1762007;81;21031;-60
2021/07/21 02:45:46;;;;;;;4.70;3.50;;;;;;;14.35;85.66;95596.59;1762618;81;20986;-60
2021/07/21 02:48:13;;;;;;;8.15;3.98;;;;;;;14.32;85.38;95595.37;1761952;81;21070;-60
2021/07/21 02:50:47;;;;;;;7.83;4.62;;;;;;;14.24;84.94;95591.18;1762474;81;21058;-60
2021/07/21 02:53:22;;;;;;;7.50;4.50;;;;;;;14.24;84.99;95593.83;1762355;81;21568;-60
2021/07/21 02:56:14;;;;;;;10.18;4.30;;;;;;;14.21;85.00;95593.05;1762820;81;21523;-60
2021/07/21 02:59:03;;;;;;;10.43;4.00;;;;;;;14.11;85.00;95592.94;1761975;81;21118;-60
2021/07/21 03:01:37;;;;;;;16.80;4.70;;;;;;;14.03;85.00;95597.17;1762420;81;21476;-60
2021/07/21 03:04:06;;;;;;;10.95;4.00;;;;;;;14.01;85.56;95604.30;1729494;81;21022;-60
2021/07/21 03:06:36;;;;;;;5.58;3.35;;;;;;;13.97;85.43;95604.02;1762515;81;20967;-60
2021/07/21 03:09:05;;;;;;;6.17;3.10;;;;;;;13.93;85.82;95610.31;1729244;81;21002;-60
2021/07/21 03:11:37;;;;;;;9.18;3.12;;;;;;;13.90;85.72;95617.05;1761941;81;21025;-60
2021/07/21 03:14:05;;;;;;;5.08;3.02;;;;;;;13.94;85.92;95620.03;1762565;81;21030;-61
2021/07/21 03:16:46;;;;;;;6.70;3.22;;;;;;;14.00;86.14;95621.15;1722517;81;20999;-60
2021/07/21 03:19:17;;;;;;;8.10;2.90;;;;;;;14.06;85.97;95627.14;1761414;81;21030;-60
2021/07/21 03:21:46;;;;;;;5.20;3.00;;;;;;;14.05;85.46;95628.04;1762739;81;20999;-60
2021/07/21 03:24:16;;;;;;;8.55;3.42;;;;;;;14.06;85.84;95633.78;1762607;81;20999;-60
2021/07/21 03:27:01;;;;;;;3.25;2.77;;;;;;;14.22;85.77;95639.45;1737643;81;21917;-60
2021/07/21 03:29:31;;;;;;;4.85;2.80;;;;;;;14.21;85.24;95634.19;1757337;81;21046;-60
2021/07/21 03:32:02;;;;;;;4.42;3.22;;;;;;;14.34;85.72;95639.52;1729774;81;21100;-60
2021/07/21 03:34:29;;;;;;;6.10;2.70;;;;;;;14.39;85.26;95636.70;1762394;81;21030;-60
2021/07/21 03:37:01;;;;;;;3.35;2.75;;;;;;;14.49;84.93;95636.83;1762463;81;21078;-60
2021/07/21 03:39:55;;;;;;;5.58;2.85;;;;;;;14.50;84.96;95634.57;1762584;81;21058;-60
2021/07/21 03:42:40;;;;;;;4.90;3.20;;;;;;;14.61;84.62;95635.09;1762495;81;21030;-60
2021/07/21 03:45:14;;;;;;;11.12;4.05;;;;;;;14.64;84.21;95636.78;1762655;81;20955;-60
2021/07/21 03:47:43;;;;;;;4.87;2.80;;;;;;;14.64;83.81;95636.34;1728396;81;21070;-60
2021/07/21 03:50:11;;;;;;;6.80;3.52;;;;;;;14.60;83.77;95633.84;1762649;81;21535;-60
2021/07/21 03:52:41;;;;;;;6.95;3.65;;;;;;;14.62;84.13;95635.98;1762788;81;20987;-60
2021/07/21 03:55:12;;;;;;;5.90;3.50;;;;;;;14.67;84.73;95641.55;1729014;81;21069;-60
2021/07/21 03:57:47;;;;;;;6.20;3.10;;;;;;;14.71;84.79;95641.83;1759747;81;21030;-60
2021/07/21 04:00:18;;;;;;;3.10;2.80;;;;;;;14.79;85.00;95643.36;1762928;81;21034;-60
2021/07/21 04:02:57;;;;;;;8.98;3.33;;;;;;;14.87;84.71;95648.84;1762199;81;21034;-61
2021/07/21 04:05:28;;;;;;;5.58;3.50;;;;;;;14.90;84.59;95642.55;1761923;81;21058;-60
2021/07/21 04:07:57;;;;;;;12.82;3.67;;;;;;;14.97;84.49;95650.72;1762268;81;21020;-60
2021/07/21 04:10:29;;;;;;;4.40;3.05;;;;;;;15.04;84.37;95658.85;1728754;81;21034;-60
2021/07/21 04:13:02;;;;;;;8.40;3.67;;;;;;;15.08;84.02;95651.19;1762470;81;21504;-60
2021/07/21 04:15:31;;;;;;;10.25;3.90;;;;;;;15.03;83.83;95650.95;1760683;81;21543;-60
2021/07/21 04:18:01;;;;;;;7.20;3.37;;;;;;;15.02;84.23;95652.75;1760232;81;21824;-60
2021/07/21 04:20:28;;;;;;;8.55;3.72;;;;;;;15.09;84.66;95650.29;1762700;81;20966;-60
2021/07/21 04:22:57;;;;;;;5.25;3.35;;;;;;;15.18;84.38;95651.73;1762730;81;21022;-60
2021/07/21 04:25:28;;;;;;;9.03;4.37;;;;;;;15.09;84.40;95653.38;1762460;81;21480;-60
2021/07/21 04:27:58;;;;;;;8.78;4.08;;;;;;;15.21;84.64;95653.42;1762222;81;21030;-60
2021/07/21 04:30:32;;;;;;;9.88;4.28;;;;;;;15.31;84.75;95647.70;1762355;81;21062;-60
2021/07/21 04:33:00;;;;;;;14.20;5.17;;;;;;;15.38;84.51;95651.49;1762620;81;21037;-61
2021/07/21 04:35:30;;;;;;;12.78;4.95;;;;;;;15.51;84.69;95655.42;1736938;81;21014;-60
2021/07/21 04:37:59;;;;;;;10.63;5.08;;;;;;;15.64;84.10;95667.34;1766177;81;21038;-60
2021/07/21 04:40:28;;;;;;;8.00;4.42;;;;;;;15.74;83.81;95660.78;1764321;81;21102;-60
2021/07/21 04:43:00;;;;;;;10.03;5.03;;;;;;;15.81;83.64;95661.89;1711468;81;21018;-60
2021/07/21 04:45:27;;;;;;;13.68;5.22;;;;;;;15.92;83.79;95664.53;1765903;81;21030;-60
2021/07/21 04:47:55;;;;;;;11.75;5.80;;;;;;;16.03;82.97;95667.23;1766057;81;21026;-60
2021/07/21 04:50:23;;;;;;;9.70;5.15;;;;;;;16.09;82.60;95667.02;1766598;81;21520;-60
2021/07/21 04:52:51;;;;;;;6.28;4.33;;;;;;;16.04;81.90;95661.86;1766199;81;21034;-60
2021/07/21 04:55:19;;;;;;;7.42;3.50;;;;;;;16.04;81.31;95663.66;1766338;81;21049;-60
2021/07/21 04:57:48;;;;;;;8.53;3.42;;;;;;;16.04;81.31;95675.64;1766025;81;21034;-60
2021/07/21 05:00:17;;;;;;;4.80;3.27;;;;;;;15.92;81.37;95665.86;1765249;81;20962;-60
2021/07/21 05:02:58;;;;;;;8.53;4.55;;;;;;;15.92;81.37;95665.86;1765896;81;21532;-60
2021/07/21 05:05:25;;;;;;;8.70;4.10;;;;;;;15.82;81.44;95664.95;1766443;81;21033;-60
2021/07/21 05:07:58;;;;;;;5.53;3.72;;;;;;;15.86;81.42;95675.89;1765526;81;21018;-60
2021/07/21 05:10:25;;;;;;;6.78;3.80;;;;;;;15.80;81.63;95679.66;1766280;81;21030;-60
2021/07/21 05:12:52;;;;;;;7.10;3.77;;;;;;;15.76;81.73;95680.22;1766080;81;21034;-60
2021/07/21 05:15:20;;;;;;;7.67;4.90;;;;;;;15.69;82.49;95678.70;1766294;81;21496;-60
2021/07/21 05:17:49;;;;;;;6.90;4.00;;;;;;;15.70;82.93;95687.11;1766406;81;21006;-60
2021/07/21 05:20:18;;;;;;;6.80;4.62;;;;;;;15.70;82.93;95687.11;1765960;81;20998;-60
2021/07/21 05:22:49;;;;;;;6.35;3.85;;;;;;;15.74;82.86;95682.06;1765265;81;21026;-60
2021/07/21 05:25:19;;;;;;;9.75;4.83;;;;;;;15.76;83.03;95685.53;1736371;81;20998;-60
2021/07/21 05:27:56;;;;;;;9.08;5.22;;;;;;;15.75;82.69;95692.27;1764794;81;21034;-60
2021/07/21 05:30:22;;;;;;;10.58;5.25;;;;;;;15.86;82.93;95681.20;1766415;81;21504;-60
2021/07/21 05:32:54;;;;;;;6.92;4.35;;;;;;;15.91;82.82;95690.74;1764907;81;21504;-60
2021/07/21 05:35:20;;;;;;;14.35;5.33;;;;;;;15.98;81.27;95688.73;1765530;81;21034;-60
2021/07/21 05:37:49;;;;;;;9.05;5.90;;;;;;;16.17;81.87;95696.86;1758918;81;21023;-60
2021/07/21 05:40:17;;;;;;;12.10;5.45;;;;;;;16.17;81.87;95696.86;1766380;81;21033;-60
2021/07/21 05:42:54;;;;;;;13.83;5.70;;;;;;;16.43;82.79;95691.38;1734109;81;21023;-60
2021/07/21 05:45:23;;;;;;;11.90;5.35;;;;;;;16.71;82.39;95696.92;1737185;81;21432;-60
2021/07/21 05:47:50;;;;;;;10.85;4.95;;;;;;;16.99;82.16;95695.81;1766275;81;21025;-60
2021/07/21 05:50:18;;;;;;;10.48;4.67;;;;;;;17.11;80.20;95703.30;1766041;81;21033;-60
2021/07/21 05:52:49;;;;;;;7.08;4.67;;;;;;;17.26;80.93;95699.08;1729715;81;21006;-60
2021/07/21 05:55:16;;;;;;;7.83;4.12;;;;;;;17.43;81.01;95704.55;1766445;81;21496;-60
2021/07/21 05:57:44;;;;;;;9.53;4.47;;;;;;;17.57;78.74;95705.29;1766024;81;21054;-60
2021/07/21 06:00:13;;;;;;;8.78;4.65;;;;;;;17.60;77.07;95702.95;1766459;81;21073;-60
2021/07/21 06:02:45;;;;;;;7.45;5.37;;;;;;;17.70;76.55;95702.94;1766045;81;21018;-60
2021/07/21 06:05:13;;;;;;;8.20;4.83;;;;;;;17.77;77.38;95703.06;1766092;81;21033;-60
2021/07/21 06:07:46;;;;;;;9.73;4.62;;;;;;;17.74;77.35;95715.22;1766410;81;21046;-60
2021/07/21 06:10:29;;;;;;;7.55;5.03;;;;;;;17.74;77.50;95710.74;1761405;81;21054;-60
2021/07/21 06:12:57;;;;;;;9.40;5.15;;;;;;;17.69;78.19;95713.23;1766034;81;21034;-60
2021/07/21 06:15:29;;;;;;;11.55;6.08;;;;;;;17.67;78.10;95721.77;1766312;81;21037;-60
2021/07/21 06:17:55;;;;;;;13.72;6.03;;;;;;;17.62;77.91;95726.44;1766122;81;20994;-60
2021/07/21 06:20:23;;;;;;;12.93;6.25;;;;;;;17.52;77.84;95726.83;1765153;81;21050;-60
2021/07/21 06:22:51;;;;;;;12.53;6.62;;;;;;;17.41;78.08;95726.88;1766355;81;21062;-60
2021/07/21 06:25:20;;;;;;;10.45;6.53;;;;;;;17.32;78.01;95724.64;1765733;81;20979;-60
2021/07/21 06:28:06;;;;;;;13.53;6.42;;;;;;;17.27;78.44;95728.83;1765997;81;21003;-60
2021/07/21 06:30:34;;;;;;;8.88;5.30;;;;;;;17.18;79.12;95727.88;1766270;81;21084;-61
2021/07/21 06:33:02;;;;;;;11.90;5.53;;;;;;;17.10;79.42;95733.53;1736483;81;21050;-60
2021/07/21 06:35:28;;;;;;;12.65;6.70;;;;;;;17.05;79.58;95735.05;1762716;81;21529;-60
2021/07/21 06:37:56;;;;;;;10.28;5.67;;;;;;;17.00;79.40;95737.52;1762384;81;21019;-60
2021/07/21 06:40:24;;;;;;;9.78;6.12;;;;;;;16.96;79.63;95742.13;1762574;81;21030;-60
2021/07/21 06:42:51;;;;;;;11.65;6.37;;;;;;;16.93;79.69;95746.69;1762484;81;21018;-60
2021/07/21 06:45:18;;;;;;;10.80;6.50;;;;;;;16.93;80.12;95754.69;1762390;81;21473;-60
2021/07/21 06:47:49;;;;;;;9.90;5.87;;;;;;;16.79;79.79;95764.13;1760241;81;21496;-60
2021/07/21 06:50:26;;;;;;;11.08;6.83;;;;;;;16.74;79.41;95759.41;1762376;81;20983;-60
2021/07/21 06:52:54;;;;;;;8.33;6.12;;;;;;;16.67;79.92;95768.56;1762758;81;20967;-60
2021/07/21 06:55:22;;;;;;;10.58;7.10;;;;;;;16.66;79.91;95770.37;1757071;81;21034;-60
2021/07/21 06:57:51;;;;;;;10.70;6.65;;;;;;;16.62;80.19;95772.73;1759528;81;21036;-60
2021/07/21 07:00:38;;;;;;;9.53;5.92;;;;;;;16.61;80.03;95780.81;1760806;81;21078;-60
2021/07/21 07:03:04;;;;;;;10.38;5.67;;;;;;;16.51;80.06;95778.97;1762636;81;21022;-60
2021/07/21 07:05:38;;;;;;;11.28;7.33;;;;;;;16.51;79.45;95781.63;1734682;81;20979;-61
2021/07/21 07:08:07;;;;;;;10.53;7.22;;;;;;;16.52;79.86;95779.83;1723635;81;21063;-60
2021/07/21 07:10:38;;;;;;;11.75;7.67;;;;;;;16.56;80.31;95786.31;1757059;81;21026;-60
2021/07/21 07:13:05;;;;;;;11.63;7.78;;;;;;;16.59;79.16;95786.19;1762486;81;21026;-60
2021/07/21 07:15:32;;;;;;;10.80;7.20;;;;;;;16.69;79.80;95789.84;1762533;81;20994;-60
2021/07/21 07:17:59;;;;;;;10.43;6.80;;;;;;;16.77;79.27;95787.25;1762452;81;21539;-60
2021/07/21 07:20:26;;;;;;;11.40;7.03;;;;;;;16.84;78.89;95783.92;1762441;81;20963;-60
2021/07/21 07:22:53;;;;;;;12.07;7.87;;;;;;;16.81;78.42;95786.72;1762722;81;21473;-60
2021/07/21 07:25:19;;;;;;;11.80;7.40;;;;;;;16.93;79.24;95781.34;1762482;81;21076;-60
2021/07/21 07:27:46;;;;;;;11.35;7.22;;;;;;;16.97;78.46;95783.83;1762691;81;21043;-60
2021/07/21 07:30:14;;;;;;;11.45;7.75;;;;;;;16.96;79.16;95784.77;1762738;81;21038;-60
2021/07/21 07:32:42;;;;;;;9.50;7.17;;;;;;;16.98;79.16;95793.55;1762779;81;21527;-60
2021/07/21 07:35:09;;;;;;;12.20;8.25;;;;;;;17.00;78.78;95794.83;1762311;81;21047;-60
2021/07/21 07:37:36;;;;;;;10.08;6.50;;;;;;;16.96;78.63;95794.09;1762794;81;21026;-60
2021/07/21 07:40:05;;;;;;;11.57;6.78;;;;;;;16.87;78.17;95798.45;1762530;81;21031;-60
2021/07/21 07:42:32;;;;;;;9.03;6.55;;;;;;;16.85;77.67;95799.83;1762509;81;20983;-60
2021/07/21 07:44:58;;;;;;;11.68;6.85;;;;;;;16.95;78.27;95808.33;1762467;81;21102;-60
2021/07/21 07:47:24;;;;;;;9.43;5.85;;;;;;;17.02;77.71;95803.64;1762344;81;21058;-60
2021/07/21 07:49:51;;;;;;;11.03;8.10;;;;;;;17.02;76.99;95806.30;1762104;81;21034;-60
2021/07/21 07:52:18;;;;;;;12.03;7.72;;;;;;;16.98;76.37;95800.68;1762681;81;20994;-60
2021/07/21 07:54:44;;;;;;;11.90;6.75;;;;;;;16.94;77.38;95804.42;1762624;81;21021;-62
2021/07/21 07:57:12;;;;;;;12.58;8.20;;;;;;;17.13;77.75;95803.19;1762552;81;21062;-60
2021/07/21 07:59:38;;;;;;;8.60;6.90;;;;;;;17.33;77.21;95807.23;1762760;81;21018;-60
2021/07/21 08:02:06;;;;;;;10.98;7.20;;;;;;;17.61;75.90;95802.06;1762241;81;21082;-60
2021/07/21 08:04:32;;;;;;;12.63;6.97;;;;;;;18.02;75.52;95796.30;1762652;81;21034;-60
2021/07/21 08:06:59;;;;;;;10.23;7.33;;;;;;;18.35;73.98;95799.23;1762349;81;21034;-60
2021/07/21 08:09:25;;;;;;;13.83;7.87;;;;;;;18.66;72.97;95787.59;1762437;81;21135;-60
2021/07/21 08:11:54;;;;;;;12.95;7.95;;;;;;;18.93;74.25;95798.81;1762343;81;21011;-60
2021/07/21 08:14:20;;;;;;;9.45;7.87;;;;;;;19.16;74.17;95793.19;1762976;81;21034;-60
2021/07/21 08:16:50;;;;;;;11.65;7.60;;;;;;;19.31;72.50;95800.08;1762167;81;21034;-60
2021/07/21 08:19:18;;;;;;;14.30;7.60;;;;;;;19.50;71.57;95794.17;1762581;81;20963;-60
2021/07/21 08:21:46;;;;;;;10.43;7.10;;;;;;;19.59;70.68;95795.53;1762644;81;21058;-60
2021/07/21 08:24:13;;;;;;;10.60;7.70;;;;;;;19.60;69.60;95789.22;1728560;81;20999;-60
2021/07/21 08:26:40;;;;;;;9.75;7.10;;;;;;;19.50;68.12;95805.36;1762545;81;21553;-60
2021/07/21 08:29:08;;;;;;;8.20;7.17;;;;;;;19.50;68.92;95805.36;1762601;81;21005;-60
2021/07/21 08:31:35;;;;;;;10.43;7.67;;;;;;;19.48;68.87;95807.23;1762487;81;21015;-60
2021/07/21 08:34:05;;;;;;;10.65;7.35;;;;;;;19.51;69.39;95801.76;1762476;81;21600;-60
2021/07/21 08:36:34;;;;;;;10.50;7.58;;;;;;;19.53;69.32;95806.53;1774192;81;21018;-61
2021/07/21 08:39:03;;;;;;;10.13;7.75;;;;;;;19.53;68.66;95807.42;1774135;81;21519;-60
2021/07/21 08:41:31;;;;;;;10.65;7.83;;;;;;;19.63;68.54;95804.67;1774299;81;21034;-60
2021/07/21 08:43:58;;;;;;;10.43;7.65;;;;;;;19.70;69.31;95807.92;1774050;81;21026;-60
2021/07/21 08:46:24;;;;;;;11.18;7.12;;;;;;;19.81;69.93;95810.06;1773949;81;21057;-60
2021/07/21 08:48:53;;;;;;;15.83;8.15;;;;;;;19.82;70.29;95813.12;1774481;81;20994;-60
2021/07/21 08:51:24;;;;;;;11.68;7.85;;;;;;;19.80;69.93;95811.85;1773911;81;21009;-60
2021/07/21 08:53:52;;;;;;;13.32;7.90;;;;;;;19.83;69.38;95819.75;1774400;81;21089;-60
2021/07/21 08:56:20;;;;;;;12.63;8.00;;;;;;;19.76;68.77;95814.79;1774156;81;21492;-60
2021/07/21 08:58:48;;;;;;;10.32;7.30;;;;;;;19.70;69.12;95815.09;1774150;81;20979;-60
2021/07/21 09:01:17;;;;;;;12.55;6.78;;;;;;;19.62;69.50;95818.98;1774204;81;21010;-60
2021/07/21 09:03:44;;;;;;;6.80;5.53;;;;;;;19.58;69.90;95821.44;1774177;81;21559;-60
2021/07/21 09:06:13;;;;;;;10.78;7.42;;;;;;;19.53;69.89;95818.58;1773742;81;21041;-60
2021/07/21 09:08:41;;;;;;;9.50;6.60;;;;;;;19.41;69.81;95827.62;1774057;81;20994;-60
2021/07/21 09:11:10;;;;;;;9.55;7.12;;;;;;;19.32;70.68;95832.09;1774495;81;21062;-60
2021/07/21 09:13:38;;;;;;;9.83;7.03;;;;;;;19.30;70.68;95829.95;1774091;81;21011;-60
2021/07/21 09:16:06;;;;;;;9.28;6.75;;;;;;;19.30;70.41;95823.27;1774188;81;21073;-60
2021/07/21 09:18:53;;;;;;;9.55;6.53;;;;;;;19.41;70.80;95822.28;1774189;81;21017;-60
2021/07/21 09:21:23;;;;;;;18.75;8.13;;;;;;;19.61;71.07;95823.09;1774031;81;20982;-60
2021/07/21 09:23:54;;;;;;;10.78;7.37;;;;;;;19.68;71.22;95820.54;1774192;81;21021;-60
2021/07/21 09:26:29;;;;;;;12.90;7.55;;;;;;;19.82;70.98;95822.02;1774103;81;21331;-60
2021/07/21 09:28:57;;;;;;;8.08;6.75;;;;;;;19.85;69.01;95827.20;1774269;81;21024;-60
2021/07/21 09:31:40;;;;;;;6.85;5.78;;;;;;;19.73;67.93;95821.62;1774020;81;21018;-60
2021/07/21 09:34:14;;;;;;;7.35;6.28;;;;;;;19.57;68.39;95829.05;1773936;81;21026;-60
2021/07/21 09:36:41;;;;;;;10.85;6.15;;;;;;;19.54;67.34;95831.89;1762734;81;21508;-60
2021/07/21 09:39:10;;;;;;;8.18;6.78;;;;;;;19.53;68.34;95830.17;1762681;81;21034;-60
2021/07/21 09:41:41;;;;;;;7.20;5.90;;;;;;;19.55;67.85;95833.61;1762132;81;21003;-60
2021/07/21 09:44:08;;;;;;;11.22;6.35;;;;;;;19.62;68.51;95833.70;1759517;81;21046;-60
2021/07/21 09:46:34;;;;;;;7.37;5.92;;;;;;;19.76;68.18;95826.84;1762696;81;21062;-60
2021/07/21 09:49:01;;;;;;;8.50;6.08;;;;;;;19.83;68.07;95828.23;1762523;81;21480;-60
2021/07/21 09:51:34;;;;;;;7.20;6.35;;;;;;;19.77;67.14;95826.74;1762137;81;21038;-60
2021/07/21 09:54:19;;;;;;;9.75;6.60;;;;;;;19.66;67.66;95832.62;1762278;81;21598;-62
2021/07/21 09:56:50;;;;;;;7.12;6.12;;;;;;;19.53;67.50;95836.86;1762786;81;21029;-60
2021/07/21 09:59:33;;;;;;;9.45;6.55;;;;;;;19.61;68.56;95835.14;1762272;81;21042;-60
2021/07/21 10:01:57;;;;;;;8.20;6.20;;;;;;;19.65;68.83;95828.22;1761686;81;21026;-60
2021/07/21 10:04:38;;;;;;;7.25;6.50;;;;;;;19.59;67.89;95820.96;1762221;81;21035;-60
2021/07/21 10:07:26;;;;;;;5.75;5.15;;;;;;;19.73;68.83;95819.83;1762806;81;21493;-60
2021/07/21 10:09:37;;;;;;;6.72;4.80;;;;;;;20.01;68.79;95827.78;1758249;81;21030;-60
2021/07/21 10:12:16;;;;;;;6.70;5.33;;;;;;;20.16;65.71;95832.33;1762436;81;21023;-60
2021/07/21 10:14:59;;;;;;;8.48;5.28;;;;;;;20.41;68.69;95826.98;1762581;81;21030;-60
2021/07/21 10:17:27;;;;;;;7.20;5.17;;;;;;;20.73;66.21;95827.47;1762645;81;21014;-60
2021/07/21 10:19:55;;;;;;;6.85;4.92;;;;;;;20.95;65.08;95824.95;1762714;81;21054;-61
2021/07/21 10:22:23;;;;;;;6.42;4.40;;;;;;;21.23;66.43;95816.20;1762329;81;20999;-60
2021/07/21 10:24:49;;;;;;;6.78;4.70;;;;;;;21.43;62.47;95814.23;1762499;81;21007;-60
2021/07/21 10:27:16;;;;;;;6.45;4.37;;;;;;;21.36;62.42;95821.73;1762624;81;21469;-60
2021/07/21 10:29:44;;;;;;;6.42;4.92;;;;;;;21.16;60.75;95827.75;1762508;81;21069;-60
2021/07/21 10:32:14;;;;;;;5.95;5.10;;;;;;;20.99;61.47;95834.58;1762420;81;21050;-60
2021/07/21 10:34:42;;;;;;;6.85;5.45;;;;;;;20.87;63.70;95837.94;1762555;81;21093;-60
2021/07/21 10:37:10;;;;;;;6.50;5.12;;;;;;;20.70;63.84;95840.20;1762019;81;21062;-60
2021/07/21 10:39:38;;;;;;;8.08;5.70;;;;;;;20.53;64.56;95844.61;1762485;81;21042;-60
2021/07/21 10:42:12;;;;;;;7.97;5.85;;;;;;;20.39;64.77;95844.50;1762570;81;21489;-60
2021/07/21 10:44:39;;;;;;;10.20;6.92;;;;;;;20.22;64.68;95844.05;1762423;81;21050;-60
2021/07/21 10:47:24;;;;;;;7.95;6.85;;;;;;;20.02;65.01;95841.08;1762566;81;21014;-60
2021/07/21 10:50:08;;;;;;;9.35;6.78;;;;;;;19.83;65.49;95846.53;1762665;81;21082;-60
2021/07/21 10:55:19;;;;;;;9.40;7.05;;;;;;;19.52;66.47;95855.66;1762283;81;21054;-60
2021/07/21 11:00:39;;;;;;;10.50;6.62;;;;;;;19.45;67.73;95855.98;1762266;81;21061;-60
2021/07/21 11:03:22;;;;;;;9.88;6.50;;;;;;;19.81;66.63;95851.09;1762633;81;21006;-60
2021/07/21 11:06:07;;;;;;;11.83;6.53;;;;;;;20.02;67.07;95851.78;1762405;81;21027;-60
2021/07/21 11:08:48;;;;;;;6.25;5.25;;;;;;;20.21;66.64;95860.20;1762552;81;21025;-60
2021/07/21 11:11:21;;;;;;;8.83;4.10;;;;;;;20.23;64.84;95859.17;1761978;81;20991;-61
2021/07/21 11:14:00;;;;;;;8.70;4.25;;;;;;;20.26;63.82;95865.73;1762634;81;21054;-60
2021/07/21 11:16:47;;;;;;;7.10;4.10;;;;;;;20.23;63.80;95865.00;1762453;81;21026;-60
2021/07/21 11:19:47;;;;;;;7.55;3.98;;;;;;;20.02;61.97;95858.48;1762070;81;21496;-60
2021/07/21 11:22:27;;;;;;;4.42;3.62;;;;;;;19.92;63.17;95871.95;1728623;81;20995;-60
2021/07/21 11:25:16;;;;;;;6.00;3.40;;;;;;;19.80;63.69;95877.45;1762523;81;20963;-60
2021/07/21 11:27:53;;;;;;;6.03;3.08;;;;;;;19.83;63.71;95874.64;1762358;81;21048;-60
2021/07/21 11:30:42;;;;;;;10.25;3.58;;;;;;;19.83;62.73;95881.34;1762535;81;20987;-60
2021/07/21 11:33:54;;;;;;;4.67;3.00;;;;;;;19.88;63.36;95885.09;1762397;81;21034;-60
2021/07/21 11:36:46;;;;;;;9.53;3.58;;;;;;;19.90;63.17;95892.58;1699453;84;21600;-60
2021/07/21 11:39:40;;;;;;;5.40;3.52;;;;;;;19.87;63.53;95894.95;1768620;81;21060;-60
2021/07/21 11:42:42;;;;;;;;;;;;;;;19.79;63.00;95898.97;1776636;81;21002;-60
2021/07/21 11:45:14;;;;;;;3.72;3.20;;;;;;;19.67;62.92;95905.79;1772783;81;20110;-60
2021/07/21 11:47:55;;;;;;;6.67;3.67;;;;;;;19.51;62.03;95908.80;1774049;81;21030;-60
2021/07/21 11:50:26;;;;;;;4.55;2.60;;;;;;;19.40;63.21;95902.61;1774482;81;21512;-60
2021/07/21 11:52:56;;;;;;;2.95;2.67;;;;;;;19.35;63.13;95901.52;1774378;81;20994;-60
2021/07/21 11:55:25;;;;;;;4.40;2.83;;;;;;;19.32;63.37;95903.47;1774143;81;21046;-60
2021/07/21 11:57:53;;;;;;;4.53;3.10;;;;;;;19.30;63.45;95910.21;1774215;81;21064;-60
2021/07/21 12:00:22;;;;;;;3.08;2.77;;;;;;;19.26;63.73;95908.64;1774221;81;21006;-63